Time;durP1;ratioP1;P1;durP2;ratioP2;P2;SDS_P1;SDS_P2;PMS_P1;PMS_P2;Temp;Humidity;BMP_temperature;BMP_pressure;BME280_temperature;BME280_humidity;BME280_pressure;Samples;Min_cycle;Max_cycle;Signal;HPM_P1;HPM_P2
2021/12/27 00:00:53;;;;;;;31.37;20.87;;;;;;;1.55;100.00;98981.03;5002385;28;20607;-66
2021/12/27 00:03:19;;;;;;;30.50;20.33;;;;;;;1.68;100.00;98979.72;5008151;28;20183;-63
2021/12/27 00:05:44;;;;;;;31.47;20.43;;;;;;;1.79;100.00;98981.88;4995167;28;20703;-65
2021/12/27 00:08:10;;;;;;;29.20;20.53;;;;;;;1.66;100.00;98973.06;4991987;28;20550;-64
2021/12/27 00:10:35;;;;;;;25.63;19.13;;;;;;;1.62;100.00;98972.34;4990915;28;20591;-64
2021/12/27 00:13:02;;;;;;;25.80;19.03;;;;;;;1.66;100.00;98981.47;5019362;28;20587;-63
2021/12/27 00:15:28;;;;;;;26.17;19.50;;;;;;;1.76;100.00;98984.50;5022616;28;20241;-64
2021/12/27 00:17:53;;;;;;;27.93;20.73;;;;;;;1.83;100.00;98982.59;5002522;28;20207;-65
2021/12/27 00:20:20;;;;;;;28.37;20.00;;;;;;;1.94;100.00;98975.41;5004039;28;20211;-65
2021/12/27 00:22:47;;;;;;;26.83;20.40;;;;;;;1.95;100.00;98969.47;5023154;28;20269;-64
2021/12/27 00:25:14;;;;;;;28.63;20.77;;;;;;;1.85;100.00;98971.50;5011654;28;20183;-64
2021/12/27 00:27:40;;;;;;;28.67;19.83;;;;;;;1.80;100.00;98968.31;5013175;28;20302;-64
2021/12/27 00:30:07;;;;;;;27.00;20.07;;;;;;;1.91;100.00;98966.22;4996355;28;20173;-64
2021/12/27 00:32:37;;;;;;;30.97;20.53;;;;;;;2.00;100.00;98959.13;5019082;28;20231;-63
2021/12/27 00:35:07;;;;;;;24.20;18.80;;;;;;;2.02;100.00;98955.66;5029520;28;20247;-64
2021/12/27 00:37:32;;;;;;;24.57;18.37;;;;;;;2.14;100.00;98959.44;5018826;28;20207;-64
2021/12/27 00:39:58;;;;;;;28.90;18.20;;;;;;;1.90;100.00;98954.41;5013875;28;20507;-64
2021/12/27 00:42:23;;;;;;;26.67;18.20;;;;;;;2.12;100.00;98951.03;5026294;28;20221;-63
2021/12/27 00:44:49;;;;;;;23.90;18.13;;;;;;;1.93;100.00;98950.94;5012987;28;20610;-64
2021/12/27 00:47:14;;;;;;;25.50;17.47;;;;;;;2.02;100.00;98957.38;5017918;28;20200;-63
2021/12/27 00:49:40;;;;;;;25.53;17.60;;;;;;;1.73;100.00;98959.28;5030533;28;20194;-63
2021/12/27 00:52:05;;;;;;;22.13;16.97;;;;;;;1.86;100.00;98955.41;5022930;28;20238;-63
2021/12/27 00:54:31;;;;;;;20.80;16.77;;;;;;;1.88;100.00;98955.34;5030942;28;20218;-63
2021/12/27 00:56:56;;;;;;;21.43;16.83;;;;;;;1.83;100.00;98955.50;5032604;28;20564;-63
2021/12/27 00:59:21;;;;;;;22.03;16.60;;;;;;;1.81;100.00;98951.38;5032621;28;20181;-62
2021/12/27 01:01:47;;;;;;;23.80;17.47;;;;;;;1.79;100.00;98951.44;5032824;28;20238;-63
2021/12/27 01:04:12;;;;;;;22.13;16.40;;;;;;;1.74;100.00;98948.25;5022411;28;20253;-63
2021/12/27 01:06:38;;;;;;;24.10;16.87;;;;;;;1.87;100.00;98951.16;5031817;28;20205;-63
2021/12/27 01:09:04;;;;;;;25.97;17.47;;;;;;;1.94;100.00;98948.31;5031003;28;20191;-63
2021/12/27 01:11:55;;;;;;;23.07;16.97;;;;;;;1.90;100.00;98946.81;5033444;28;20289;-63
2021/12/27 01:14:37;;;;;;;20.57;15.73;;;;;;;1.91;100.00;98952.69;5032740;28;20264;-63
2021/12/27 01:17:03;;;;;;;25.53;17.50;;;;;;;1.96;100.00;98953.38;5032383;28;20206;-63
2021/12/27 01:19:28;;;;;;;25.13;17.63;;;;;;;2.08;100.00;98955.44;5032194;28;20183;-63
2021/12/27 01:21:53;;;;;;;30.20;16.90;;;;;;;1.92;100.00;98957.72;5033388;28;20257;-63
2021/12/27 01:24:19;;;;;;;25.03;17.50;;;;;;;2.06;100.00;98951.28;5013067;28;20199;-63
2021/12/27 01:26:44;;;;;;;21.87;16.80;;;;;;;2.10;100.00;98955.38;5011935;28;20273;-63
2021/12/27 01:29:09;;;;;;;21.77;17.17;;;;;;;1.99;100.00;98954.97;5012235;28;20177;-63
2021/12/27 01:31:35;;;;;;;25.87;16.83;;;;;;;1.97;100.00;98954.19;5014184;28;20235;-63
2021/12/27 01:34:00;;;;;;;19.57;15.47;;;;;;;2.10;100.00;98963.78;5014946;28;20578;-63
2021/12/27 01:36:31;;;;;;;23.27;16.73;;;;;;;2.09;100.00;98958.78;5011911;28;20184;-63
2021/12/27 01:38:56;;;;;;;22.83;16.23;;;;;;;2.16;100.00;98962.75;5011929;28;20263;-63
2021/12/27 01:41:22;;;;;;;19.93;15.87;;;;;;;2.14;100.00;98964.50;5012360;28;20817;-63
2021/12/27 01:43:47;;;;;;;21.83;16.07;;;;;;;2.13;100.00;98962.84;5016700;28;20191;-64
2021/12/27 01:46:18;;;;;;;23.00;16.03;;;;;;;2.16;100.00;98961.91;5011877;28;20180;-63
2021/12/27 01:48:54;;;;;;;23.10;16.83;;;;;;;2.21;100.00;98955.78;5011852;28;20566;-63
2021/12/27 01:51:19;;;;;;;22.90;17.30;;;;;;;2.15;100.00;98957.75;5011487;28;20227;-63
2021/12/27 01:53:46;;;;;;;23.20;15.73;;;;;;;2.29;100.00;98957.22;5016937;28;20771;-63
2021/12/27 01:56:13;;;;;;;21.57;16.33;;;;;;;2.37;100.00;98957.72;5011735;28;20491;-63
2021/12/27 01:58:39;;;;;;;21.00;15.27;;;;;;;2.27;100.00;98952.19;5011785;28;20590;-64
2021/12/27 02:01:08;;;;;;;21.00;16.07;;;;;;;2.21;100.00;98948.16;5009719;28;20618;-63
2021/12/27 02:03:34;;;;;;;19.80;16.43;;;;;;;2.12;100.00;98943.44;5018238;28;20275;-63
2021/12/27 02:06:01;;;;;;;24.33;17.33;;;;;;;2.16;100.00;98937.38;5011341;28;20182;-63
2021/12/27 02:08:27;;;;;;;24.57;16.60;;;;;;;2.09;100.00;98946.09;5011440;28;20203;-63
2021/12/27 02:10:53;;;;;;;24.67;17.13;;;;;;;2.15;100.00;98939.97;5008092;28;20224;-63
2021/12/27 02:13:19;;;;;;;27.07;17.13;;;;;;;2.13;100.00;98944.28;5019770;28;20215;-63
2021/12/27 02:15:45;;;;;;;25.33;17.53;;;;;;;2.23;100.00;98943.88;4991578;28;20613;-63
2021/12/27 02:18:11;;;;;;;27.83;17.67;;;;;;;2.26;100.00;98940.38;4991646;28;20288;-64
2021/12/27 02:20:38;;;;;;;24.83;17.40;;;;;;;2.14;100.00;98936.59;4986070;28;20320;-63
2021/12/27 02:23:11;;;;;;;26.60;17.30;;;;;;;2.16;100.00;98936.53;5014497;28;20185;-63
2021/12/27 02:25:37;;;;;;;25.73;16.67;;;;;;;2.15;100.00;98945.06;5010794;28;20626;-64
2021/12/27 02:28:05;;;;;;;22.33;15.73;;;;;;;2.28;100.00;98941.13;5011018;28;20263;-63
2021/12/27 02:30:32;;;;;;;25.67;16.67;;;;;;;2.23;100.00;98937.94;5004771;28;20253;-62
2021/12/27 02:33:00;;;;;;;28.60;16.63;;;;;;;2.24;100.00;98932.00;5022197;28;20197;-61
2021/12/27 02:35:29;;;;;;;32.87;16.30;;;;;;;2.07;100.00;98932.66;5010591;28;20178;-62
2021/12/27 02:37:55;;;;;;;26.37;16.93;;;;;;;2.02;100.00;98925.22;5010863;28;20591;-61
2021/12/27 02:40:28;;;;;;;34.83;18.87;;;;;;;2.01;100.00;98922.72;5003451;28;20246;-61
2021/12/27 02:43:07;;;;;;;37.27;18.63;;;;;;;1.95;100.00;98916.19;5022618;28;20173;-62
2021/12/27 02:45:35;;;;;;;32.67;18.97;;;;;;;1.83;100.00;98916.66;5009872;28;20252;-62
2021/12/27 02:48:02;;;;;;;28.93;17.90;;;;;;;1.88;100.00;98927.47;5010677;28;20571;-63
2021/12/27 02:50:27;;;;;;;41.13;19.07;;;;;;;1.89;100.00;98927.38;5004111;28;20311;-62
2021/12/27 02:52:53;;;;;;;29.77;18.83;;;;;;;1.95;100.00;98931.41;5009298;28;20346;-62
2021/12/27 02:55:19;;;;;;;33.30;19.10;;;;;;;1.97;100.00;98931.34;5010341;28;20187;-62
2021/12/27 02:57:46;;;;;;;37.77;19.43;;;;;;;2.02;100.00;98929.47;5009087;28;20286;-62
2021/12/27 03:00:18;;;;;;;37.47;19.67;;;;;;;1.98;100.00;98925.41;5001906;28;20267;-62
2021/12/27 03:02:46;;;;;;;38.07;18.50;;;;;;;2.07;100.00;98923.34;5023643;28;21030;-62
2021/12/27 03:05:14;;;;;;;48.87;20.87;;;;;;;2.22;100.00;98916.84;5008733;28;20626;-62
2021/12/27 03:07:40;;;;;;;33.00;19.43;;;;;;;2.32;100.00;98930.00;5010282;28;20205;-62
2021/12/27 03:10:07;;;;;;;32.03;17.93;;;;;;;2.03;100.00;98918.44;5001019;28;20281;-62
2021/12/27 03:12:32;;;;;;;36.10;19.47;;;;;;;2.07;100.00;98915.72;5008987;28;20558;-62
2021/12/27 03:14:57;;;;;;;32.80;19.27;;;;;;;1.98;100.00;98912.72;5010192;28;20239;-62
2021/12/27 03:17:23;;;;;;;38.73;19.23;;;;;;;1.83;100.00;98917.47;5010162;28;20283;-61
2021/12/27 03:19:48;;;;;;;38.23;19.97;;;;;;;2.07;100.00;98913.19;5010230;28;20178;-62
2021/12/27 03:22:13;;;;;;;41.20;19.50;;;;;;;2.07;100.00;98913.19;5015588;28;20370;-63
2021/12/27 03:24:39;;;;;;;40.43;19.03;;;;;;;2.15;100.00;98917.16;5009994;28;20182;-62
2021/12/27 03:27:04;;;;;;;33.43;18.67;;;;;;;2.26;100.00;98915.00;5009980;28;20260;-63
2021/12/27 03:29:29;;;;;;;36.80;18.30;;;;;;;2.39;100.00;98906.03;5010120;28;20202;-61
2021/12/27 03:31:55;;;;;;;57.90;20.63;;;;;;;2.14;100.00;98905.34;5002241;28;20245;-62
2021/12/27 03:34:21;;;;;;;41.27;18.33;;;;;;;2.19;100.00;98904.25;5010731;28;20209;-62
2021/12/27 03:36:47;;;;;;;62.73;19.20;;;;;;;2.18;100.00;98900.06;5009849;28;20209;-62
2021/12/27 03:39:14;;;;;;;115.03;21.33;;;;;;;2.21;100.00;98894.88;5010431;28;20670;-62
2021/12/27 03:41:39;;;;;;;62.40;19.90;;;;;;;2.11;100.00;98896.16;5012347;28;20319;-62
2021/12/27 03:44:05;;;;;;;44.07;18.83;;;;;;;2.10;100.00;98902.91;5012682;28;20296;-62
2021/12/27 03:46:30;;;;;;;125.53;20.77;;;;;;;2.21;100.00;98892.34;5009930;28;20639;-62
2021/12/27 03:48:56;;;;;;;49.57;19.70;;;;;;;2.24;100.00;98893.94;5010136;28;20673;-62
2021/12/27 03:51:21;;;;;;;34.97;19.27;;;;;;;2.22;100.00;98896.53;5010084;28;20234;-62
2021/12/27 03:53:47;;;;;;;53.23;20.77;;;;;;;2.42;100.00;98895.75;5015493;28;20209;-62
2021/12/27 03:56:12;;;;;;;50.40;19.37;;;;;;;2.44;100.00;98893.13;5020489;28;20653;-61
2021/12/27 04:01:17;;;;;;;87.43;20.47;;;;;;;2.41;100.00;98894.09;5022723;28;20615;-62
2021/12/27 04:03:48;;;;;;;49.57;20.27;;;;;;;2.41;100.00;98893.28;5039179;28;20608;-62
2021/12/27 04:06:16;;;;;;;111.37;22.87;;;;;;;2.44;100.00;98887.25;5033629;28;20179;-63
2021/12/27 04:08:42;;;;;;;127.27;21.90;;;;;;;2.47;100.00;98890.50;5033509;28;20196;-62
2021/12/27 04:11:07;;;;;;;75.73;21.87;;;;;;;2.51;100.00;98888.66;5031969;28;20379;-63
2021/12/27 04:13:33;;;;;;;65.93;21.03;;;;;;;2.50;100.00;98885.28;5040073;28;20196;-62
2021/12/27 04:15:59;;;;;;;77.57;21.73;;;;;;;2.60;100.00;98884.91;5030653;28;20230;-62
2021/12/27 04:18:25;;;;;;;68.97;20.60;;;;;;;2.34;100.00;98879.19;5041157;28;20566;-62
2021/12/27 04:20:54;;;;;;;80.83;20.90;;;;;;;2.34;100.00;98879.19;5029720;28;20236;-64
2021/12/27 04:23:19;;;;;;;70.33;19.93;;;;;;;2.42;100.00;98882.25;5027340;28;20553;-63
2021/12/27 04:25:45;;;;;;;63.73;20.03;;;;;;;2.39;100.00;98882.34;5013178;28;20185;-62
2021/12/27 04:28:10;;;;;;;93.10;20.40;;;;;;;2.17;100.00;98890.00;5013149;28;20216;-62
2021/12/27 04:30:36;;;;;;;41.43;20.03;;;;;;;2.36;100.00;98887.56;4987513;28;20239;-63
2021/12/27 04:33:02;;;;;;;84.90;21.13;;;;;;;2.45;100.00;98884.63;5023961;28;20285;-63
2021/12/27 04:35:28;;;;;;;48.60;18.53;;;;;;;2.34;100.00;98877.44;5013048;28;20173;-63
2021/12/27 04:37:54;;;;;;;54.13;19.30;;;;;;;2.35;100.00;98881.66;5011677;28;20194;-62
2021/12/27 04:40:22;;;;;;;80.40;19.13;;;;;;;2.35;100.00;98875.75;5005280;28;20226;-62
2021/12/27 04:42:52;;;;;;;34.80;17.73;;;;;;;2.42;100.00;98883.06;5011462;28;20177;-62
2021/12/27 04:45:18;;;;;;;39.03;18.93;;;;;;;2.55;100.00;98877.47;5011410;28;20172;-63
2021/12/27 04:47:44;;;;;;;44.90;19.53;;;;;;;2.53;100.00;98877.53;5012834;28;20205;-62
2021/12/27 04:50:10;;;;;;;40.40;17.67;;;;;;;2.54;100.00;98874.13;5004068;28;20187;-63
2021/12/27 04:52:36;;;;;;;44.30;18.00;;;;;;;2.29;100.00;98866.66;5026991;28;20184;-62
2021/12/27 04:55:02;;;;;;;31.93;16.87;;;;;;;2.19;100.00;98860.31;5012482;28;20185;-62
2021/12/27 04:57:28;;;;;;;25.37;15.73;;;;;;;2.15;100.00;98854.53;5012595;28;20642;-63
2021/12/27 04:59:54;;;;;;;24.90;15.07;;;;;;;2.20;100.00;98856.91;5012764;28;20173;-63
2021/12/27 05:02:19;;;;;;;26.60;15.83;;;;;;;2.28;100.00;98856.59;5017730;28;20318;-63
2021/12/27 05:04:44;;;;;;;26.70;15.67;;;;;;;2.26;100.00;98854.13;5012401;28;20185;-63
2021/12/27 05:07:10;;;;;;;20.73;14.37;;;;;;;2.18;100.00;98851.06;5011876;28;20215;-62
2021/12/27 05:09:35;;;;;;;24.53;16.13;;;;;;;2.20;100.00;98846.75;5012480;28;20655;-62
2021/12/27 05:12:00;;;;;;;25.07;14.57;;;;;;;2.15;100.00;98851.19;5017520;28;20258;-62
2021/12/27 05:14:25;;;;;;;27.17;15.10;;;;;;;2.26;100.00;98861.72;5012439;28;20215;-61
2021/12/27 05:16:51;;;;;;;22.67;12.97;;;;;;;2.17;100.00;98857.84;5012216;28;20656;-61
2021/12/27 05:19:16;;;;;;;22.57;13.33;;;;;;;2.22;100.00;98850.88;5012498;28;20256;-61
2021/12/27 05:21:42;;;;;;;25.83;14.43;;;;;;;2.47;100.00;98854.94;5014635;28;20228;-62
2021/12/27 05:24:07;;;;;;;19.67;12.83;;;;;;;2.37;100.00;98862.13;5014772;28;20193;-62
2021/12/27 05:26:32;;;;;;;22.13;13.27;;;;;;;2.47;100.00;98851.56;5012055;28;20674;-62
2021/12/27 05:28:58;;;;;;;21.00;13.10;;;;;;;2.30;100.00;98844.66;5012121;28;20185;-62
2021/12/27 05:31:23;;;;;;;19.97;12.43;;;;;;;2.12;100.00;98848.75;5012193;28;20548;-62
2021/12/27 05:33:49;;;;;;;19.33;13.20;;;;;;;2.33;100.00;98844.53;5016717;28;20216;-62
2021/12/27 05:36:14;;;;;;;21.27;13.50;;;;;;;2.39;100.00;98842.59;5012040;28;20182;-62
2021/12/27 05:38:40;;;;;;;23.17;14.10;;;;;;;2.42;100.00;98844.16;5012040;28;20196;-62
2021/12/27 05:41:06;;;;;;;23.80;13.90;;;;;;;2.49;100.00;98834.56;5009995;28;20228;-62
2021/12/27 05:43:32;;;;;;;26.30;13.70;;;;;;;2.39;100.00;98840.03;5018728;28;20799;-62
2021/12/27 05:45:58;;;;;;;25.17;13.97;;;;;;;2.47;100.00;98839.72;5011738;28;20170;-62
2021/12/27 05:48:23;;;;;;;29.80;14.47;;;;;;;2.56;100.00;98834.25;5011667;28;20260;-62
2021/12/27 05:50:48;;;;;;;22.90;15.37;;;;;;;2.51;100.00;98832.81;5007725;28;20232;-62
2021/12/27 05:53:16;;;;;;;21.77;13.53;;;;;;;2.41;100.00;98845.88;5020823;28;20308;-62
2021/12/27 05:55:42;;;;;;;21.93;13.40;;;;;;;2.50;100.00;98847.19;5011503;28;20186;-61
2021/12/27 05:58:07;;;;;;;21.77;12.43;;;;;;;2.46;100.00;98838.06;5011747;28;20244;-62
2021/12/27 06:00:33;;;;;;;28.23;13.93;;;;;;;2.40;100.00;98843.41;5005179;28;20252;-62
2021/12/27 06:02:58;;;;;;;23.33;13.83;;;;;;;2.39;100.00;98849.34;5022961;28;20178;-62
2021/12/27 06:05:24;;;;;;;22.00;13.17;;;;;;;2.54;100.00;98846.19;5011745;28;20176;-63
2021/12/27 06:07:50;;;;;;;29.87;14.17;;;;;;;2.44;100.00;98833.94;5012026;28;20666;-64
2021/12/27 06:10:17;;;;;;;39.60;14.93;;;;;;;2.35;100.00;98833.44;5003226;28;20192;-62
2021/12/27 06:12:43;;;;;;;47.30;15.97;;;;;;;2.50;100.00;98826.88;5024530;28;20209;-62
2021/12/27 06:15:09;;;;;;;43.00;15.23;;;;;;;2.40;100.00;98821.38;5009876;28;20301;-63
2021/12/27 06:17:37;;;;;;;40.67;15.00;;;;;;;2.27;100.00;98825.31;5009927;28;20195;-61
2021/12/27 06:20:06;;;;;;;29.87;14.83;;;;;;;2.12;100.00;98808.16;5006884;28;20537;-62
2021/12/27 06:22:32;;;;;;;32.70;17.07;;;;;;;2.10;100.00;98805.69;5026019;28;20219;-62
2021/12/27 06:25:03;;;;;;;27.07;15.30;;;;;;;2.22;100.00;98807.75;5010970;28;20182;-63
2021/12/27 06:27:29;;;;;;;29.50;15.20;;;;;;;2.20;100.00;98811.22;4991387;28;20306;-63
2021/12/27 06:29:54;;;;;;;27.63;16.30;;;;;;;2.24;100.00;98813.56;4991393;28;20317;-63
2021/12/27 06:32:20;;;;;;;36.10;15.70;;;;;;;2.23;100.00;98816.16;4996680;28;20321;-63
2021/12/27 06:34:45;;;;;;;27.27;15.83;;;;;;;2.16;100.00;98818.13;4991080;28;20233;-63
2021/12/27 06:37:10;;;;;;;28.40;16.37;;;;;;;2.20;100.00;98824.72;4989875;28;20703;-63
2021/12/27 06:39:36;;;;;;;30.53;16.90;;;;;;;2.10;100.00;98820.91;4991248;28;20181;-63
2021/12/27 06:42:02;;;;;;;36.47;17.60;;;;;;;2.30;100.00;98822.66;4987245;28;20598;-63
2021/12/27 06:44:27;;;;;;;34.97;16.70;;;;;;;2.14;100.00;98816.56;5010555;28;20193;-62
2021/12/27 06:46:56;;;;;;;34.63;17.37;;;;;;;2.20;100.00;98812.03;5010668;28;20225;-62
2021/12/27 06:49:21;;;;;;;39.50;19.27;;;;;;;2.27;100.00;98807.56;5010829;28;20176;-62
2021/12/27 06:51:47;;;;;;;32.73;16.10;;;;;;;2.17;100.00;98811.34;5013801;28;20746;-63
2021/12/27 06:54:12;;;;;;;37.80;16.80;;;;;;;2.17;100.00;98806.25;5012249;28;20220;-63
2021/12/27 06:56:37;;;;;;;34.53;17.40;;;;;;;2.15;100.00;98811.41;5010532;28;20539;-63
2021/12/27 06:59:03;;;;;;;33.87;18.27;;;;;;;2.31;100.00;98813.31;5010754;28;20190;-63
2021/12/27 07:01:29;;;;;;;43.63;17.30;;;;;;;2.36;100.00;98812.25;5011848;28;20640;-62
2021/12/27 07:03:54;;;;;;;35.63;17.80;;;;;;;2.51;100.00;98804.88;5014706;28;20204;-62
2021/12/27 07:06:19;;;;;;;34.07;17.10;;;;;;;2.58;100.00;98806.28;5010659;28;20201;-63
2021/12/27 07:08:47;;;;;;;38.90;18.80;;;;;;;2.47;100.00;98796.56;5012014;28;20361;-63
2021/12/27 07:11:13;;;;;;;40.87;19.13;;;;;;;2.48;100.00;98805.00;5025988;28;20231;-63
2021/12/27 07:13:38;;;;;;;38.40;18.20;;;;;;;2.60;100.00;98809.56;5020302;28;20569;-63
2021/12/27 07:16:04;;;;;;;39.10;17.60;;;;;;;2.82;100.00;98817.09;5013087;28;20184;-63
2021/12/27 07:18:29;;;;;;;43.83;18.80;;;;;;;2.58;100.00;98809.63;5029466;28;20284;-63
2021/12/27 07:20:55;;;;;;;39.13;17.80;;;;;;;2.45;100.00;98813.56;5009559;28;20217;-63
2021/12/27 07:23:21;;;;;;;39.00;17.87;;;;;;;2.42;100.00;98811.97;5021685;28;20598;-63
2021/12/27 07:25:46;;;;;;;39.60;17.60;;;;;;;2.44;100.00;98814.44;5012101;28;20590;-63
2021/12/27 07:28:12;;;;;;;49.30;18.03;;;;;;;2.32;100.00;98803.13;5012391;28;20294;-63
2021/12/27 07:30:37;;;;;;;42.17;17.90;;;;;;;2.36;100.00;98794.47;5005833;28;20232;-63
2021/12/27 07:33:02;;;;;;;51.10;18.27;;;;;;;2.31;100.00;98793.84;5009130;28;20287;-63
2021/12/27 07:35:28;;;;;;;50.73;18.97;;;;;;;2.45;100.00;98798.34;5005670;28;20204;-62
2021/12/27 07:37:54;;;;;;;50.50;18.20;;;;;;;2.41;100.00;98796.81;5008023;28;20823;-63
2021/12/27 07:40:19;;;;;;;58.80;18.93;;;;;;;2.38;100.00;98807.94;5001446;28;20187;-63
2021/12/27 07:42:45;;;;;;;56.70;19.27;;;;;;;2.48;100.00;98807.53;5010007;28;20178;-62
2021/12/27 07:45:10;;;;;;;43.37;19.70;;;;;;;2.47;100.00;98805.88;4993910;28;20600;-63
2021/12/27 07:47:36;;;;;;;42.10;18.50;;;;;;;2.70;100.00;98823.50;5001000;28;20205;-63
2021/12/27 07:50:04;;;;;;;42.20;18.73;;;;;;;2.62;100.00;98828.09;5002241;28;20582;-63
2021/12/27 07:52:29;;;;;;;40.67;18.40;;;;;;;2.78;100.00;98828.28;4981323;28;20313;-63
2021/12/27 07:54:55;;;;;;;38.73;19.03;;;;;;;2.73;100.00;98822.56;5008214;28;20274;-63
2021/12/27 07:57:20;;;;;;;41.13;19.27;;;;;;;2.81;100.00;98829.84;5012419;28;20245;-63
2021/12/27 07:59:49;;;;;;;44.57;18.73;;;;;;;2.89;100.00;98815.94;5011314;28;20190;-62
2021/12/27 08:02:15;;;;;;;56.30;20.50;;;;;;;2.74;100.00;98806.41;4997278;28;20233;-63
2021/12/27 08:04:41;;;;;;;44.23;19.40;;;;;;;2.71;100.00;98815.00;5029403;28;20283;-63
2021/12/27 08:07:06;;;;;;;42.77;18.53;;;;;;;2.77;100.00;98811.38;5029821;28;20701;-63
2021/12/27 08:09:32;;;;;;;49.30;17.57;;;;;;;2.71;100.00;98809.09;5029859;28;20219;-63
2021/12/27 08:11:57;;;;;;;57.93;18.50;;;;;;;2.77;100.00;98808.84;5019873;28;20236;-63
2021/12/27 08:14:23;;;;;;;45.93;18.93;;;;;;;2.83;100.00;98797.56;5010319;28;20292;-63
2021/12/27 08:16:48;;;;;;;58.00;19.27;;;;;;;2.91;100.00;98793.00;5017138;28;20228;-63
2021/12/27 08:19:14;;;;;;;61.20;20.00;;;;;;;2.73;100.00;98800.53;4996055;28;20288;-63
2021/12/27 08:21:39;;;;;;;64.77;19.13;;;;;;;2.70;100.00;98802.38;4994787;28;20315;-63
2021/12/27 08:24:09;;;;;;;71.27;20.10;;;;;;;2.62;100.00;98790.00;5015237;28;20209;-64
2021/12/27 08:26:35;;;;;;;50.13;18.73;;;;;;;2.77;100.00;98797.84;5016509;28;20210;-64
2021/12/27 08:29:04;;;;;;;76.40;18.10;;;;;;;2.81;100.00;98786.69;5016130;28;20681;-63
2021/12/27 08:31:29;;;;;;;63.43;18.73;;;;;;;2.78;100.00;98791.88;4992576;28;20264;-64
2021/12/27 08:33:55;;;;;;;87.40;19.13;;;;;;;2.87;100.00;98788.94;5017330;28;20675;-64
2021/12/27 08:36:20;;;;;;;65.77;19.27;;;;;;;2.89;100.00;98787.16;5021264;28;20178;-64
2021/12/27 08:38:48;;;;;;;62.47;18.87;;;;;;;2.75;100.00;98787.75;5029540;28;20225;-63
2021/12/27 08:41:18;;;;;;;106.57;21.37;;;;;;;2.78;100.00;98789.34;5028965;28;20228;-63
2021/12/27 08:43:44;;;;;;;76.47;18.83;;;;;;;2.74;100.00;98791.19;5020877;28;20276;-63
2021/12/27 08:46:09;;;;;;;85.10;18.50;;;;;;;2.88;100.00;98795.69;5015994;28;20686;-63
2021/12/27 08:48:35;;;;;;;82.23;19.53;;;;;;;2.92;100.00;98801.47;5018130;28;20206;-63
2021/12/27 08:51:01;;;;;;;130.37;20.93;;;;;;;2.83;100.00;98803.50;5022136;28;20231;-64
2021/12/27 08:53:26;;;;;;;126.33;20.43;;;;;;;2.88;100.00;98799.03;5022673;28;20622;-63
2021/12/27 08:55:52;;;;;;;81.97;19.83;;;;;;;3.03;100.00;98800.06;5012523;28;20195;-63
2021/12/27 08:58:18;;;;;;;89.77;21.00;;;;;;;3.17;100.00;98801.19;5020810;28;20209;-62
2021/12/27 09:00:43;;;;;;;98.47;21.10;;;;;;;3.30;100.00;98798.91;5024301;28;20319;-63
2021/12/27 09:03:11;;;;;;;78.90;20.40;;;;;;;3.06;100.00;98797.41;5023135;28;20177;-63
2021/12/27 09:05:37;;;;;;;75.20;18.90;;;;;;;2.93;100.00;98791.22;5032307;28;20170;-63
2021/12/27 09:08:03;;;;;;;78.30;19.10;;;;;;;3.11;100.00;98792.09;5032245;28;20255;-63
2021/12/27 09:10:28;;;;;;;166.43;22.83;;;;;;;3.16;100.00;98786.81;5025584;28;20304;-63
2021/12/27 09:12:54;;;;;;;99.40;21.40;;;;;;;3.03;100.00;98784.84;5044070;28;20254;-63
2021/12/27 09:15:20;;;;;;;96.93;20.53;;;;;;;3.13;100.00;98779.34;5032341;28;20185;-63
2021/12/27 09:17:45;;;;;;;96.43;19.10;;;;;;;3.06;100.00;98778.78;5032436;28;20196;-63
2021/12/27 09:20:11;;;;;;;172.67;22.13;;;;;;;2.98;100.00;98766.44;5023502;28;20182;-62
2021/12/27 09:22:37;;;;;;;70.33;18.73;;;;;;;2.96;100.00;98780.09;5036982;28;20170;-63
2021/12/27 09:25:04;;;;;;;67.03;18.17;;;;;;;2.94;100.00;98770.00;5012245;28;20194;-63
2021/12/27 09:27:29;;;;;;;85.07;19.87;;;;;;;3.10;100.00;98782.00;5012245;28;20216;-63
2021/12/27 09:29:54;;;;;;;121.93;21.00;;;;;;;3.16;100.00;98777.50;5012147;28;20177;-63
2021/12/27 09:32:20;;;;;;;103.43;19.90;;;;;;;3.24;100.00;98789.84;5017370;28;20729;-62
2021/12/27 09:34:46;;;;;;;140.53;22.37;;;;;;;3.33;100.00;98784.34;5011855;28;20210;-63
2021/12/27 09:37:11;;;;;;;182.07;23.27;;;;;;;3.41;100.00;98776.34;5010685;28;20559;-62
2021/12/27 09:39:36;;;;;;;94.77;21.83;;;;;;;3.41;100.00;98778.91;5012188;28;20167;-63
2021/12/27 09:42:02;;;;;;;87.07;21.10;;;;;;;3.35;100.00;98772.38;5017139;28;20227;-63
2021/12/27 09:44:28;;;;;;;143.40;22.63;;;;;;;3.50;100.00;98775.13;5011777;28;20242;-63
2021/12/27 09:46:53;;;;;;;122.93;22.97;;;;;;;3.67;100.00;98761.59;5012134;28;20198;-63
2021/12/27 09:49:20;;;;;;;98.73;20.80;;;;;;;3.47;100.00;98758.25;5011953;28;20170;-63
2021/12/27 09:51:46;;;;;;;104.13;19.37;;;;;;;3.37;100.00;98762.16;5015029;28;20399;-63
2021/12/27 09:54:13;;;;;;;98.73;19.10;;;;;;;3.27;100.00;98753.31;5013581;28;20214;-64
2021/12/27 09:56:39;;;;;;;109.20;21.13;;;;;;;3.22;100.00;98756.88;5012152;28;20181;-63
2021/12/27 09:59:05;;;;;;;135.37;21.57;;;;;;;3.31;100.00;98754.81;5011785;28;20178;-64
2021/12/27 10:01:30;;;;;;;77.77;20.10;;;;;;;3.37;100.00;98751.97;5012633;28;20229;-64
2021/12/27 10:04:00;;;;;;;101.23;20.73;;;;;;;3.36;100.00;98745.25;5016035;28;20178;-64
2021/12/27 10:06:27;;;;;;;60.40;18.97;;;;;;;3.36;100.00;98742.69;5011550;28;20205;-64
2021/12/27 10:08:56;;;;;;;112.30;19.93;;;;;;;3.30;100.00;98736.19;5011705;28;20177;-64
2021/12/27 10:11:30;;;;;;;68.93;21.40;;;;;;;3.31;100.00;98734.47;5011733;28;20887;-64
2021/12/27 10:14:03;;;;;;;51.13;19.73;;;;;;;3.48;100.00;98731.94;5009796;28;20250;-64
2021/12/27 10:16:30;;;;;;;50.13;19.90;;;;;;;3.66;100.00;98737.06;5011437;28;20181;-64
2021/12/27 10:19:00;;;;;;;50.07;19.83;;;;;;;3.68;100.00;98732.72;5011363;28;20200;-64
2021/12/27 10:21:26;;;;;;;90.57;20.57;;;;;;;3.65;100.00;98730.34;5012130;28;20233;-64
2021/12/27 10:24:03;;;;;;;70.47;20.60;;;;;;;3.62;100.00;98728.78;5015509;28;20753;-62
2021/12/27 10:26:30;;;;;;;41.47;18.03;;;;;;;3.63;100.00;98720.22;5009867;28;20836;-62
2021/12/27 10:29:15;;;;;;;68.40;20.00;;;;;;;3.61;100.00;98724.59;5011492;28;20178;-62
2021/12/27 10:32:04;;;;;;;64.03;19.10;;;;;;;3.75;100.00;98723.09;5014236;28;20377;-62
2021/12/27 10:34:50;;;;;;;52.73;17.97;;;;;;;3.83;100.00;98731.16;5010976;28;20198;-62
2021/12/27 10:37:19;;;;;;;62.87;18.63;;;;;;;3.90;100.00;98724.88;5009552;28;20289;-62
2021/12/27 10:39:56;;;;;;;46.23;18.50;;;;;;;3.79;100.00;98722.84;5009598;28;20686;-62
2021/12/27 10:42:29;;;;;;;58.60;24.43;;;;;;;3.74;100.00;98721.44;5016491;28;20240;-62
2021/12/27 10:44:58;;;;;;;46.60;18.60;;;;;;;3.61;100.00;98711.88;5010745;28;20206;-62
2021/12/27 10:47:34;;;;;;;43.77;20.20;;;;;;;3.64;100.00;98705.81;5010986;28;20272;-62
2021/12/27 10:50:05;;;;;;;40.57;19.20;;;;;;;3.64;100.00;98701.53;5011232;28;20181;-62
2021/12/27 10:52:41;;;;;;;46.87;19.73;;;;;;;3.68;100.00;98697.97;5000127;28;20217;-62
2021/12/27 10:55:07;;;;;;;77.97;20.00;;;;;;;3.66;100.00;98704.00;5010891;28;20596;-62
2021/12/27 10:57:32;;;;;;;69.10;21.13;;;;;;;3.78;100.00;98695.78;5011133;28;20198;-62
2021/12/27 11:00:20;;;;;;;73.70;19.73;;;;;;;3.94;100.00;98695.03;5011469;28;20313;-62
2021/12/27 11:02:45;;;;;;;46.43;18.37;;;;;;;3.91;100.00;98701.09;4999308;28;20275;-63
2021/12/27 11:05:18;;;;;;;56.43;20.20;;;;;;;4.07;100.00;98705.41;5009949;28;20183;-62
2021/12/27 11:07:44;;;;;;;56.43;20.23;;;;;;;4.41;100.00;98704.53;5008640;28;20504;-62
2021/12/27 11:10:10;;;;;;;47.43;18.50;;;;;;;4.67;100.00;98702.34;5003301;28;20738;-62
2021/12/27 11:12:36;;;;;;;72.60;20.40;;;;;;;4.79;100.00;98698.34;5027178;28;20211;-63
2021/12/27 11:15:02;;;;;;;56.80;18.63;;;;;;;4.53;100.00;98693.69;5013412;28;20329;-62
2021/12/27 11:17:29;;;;;;;63.47;20.10;;;;;;;4.57;100.00;98694.34;5032485;28;20229;-63